sensor_id;sensor_type;location;lat;lon;timestamp;P1;durP1;ratioP1;P2;durP2;ratioP2
74965;SDS011;63522;47.928;21.042;2024-01-15T00:00:37;6.70;;;3.80;;
74965;SDS011;63522;47.928;21.042;2024-01-15T00:03:03;5.70;;;3.30;;
74965;SDS011;63522;47.928;21.042;2024-01-15T00:05:29;6.10;;;3.30;;
74965;SDS011;63522;47.928;21.042;2024-01-15T00:07:54;6.30;;;3.10;;
74965;SDS011;63522;47.928;21.042;2024-01-15T00:10:20;5.40;;;2.70;;
74965;SDS011;63522;47.928;21.042;2024-01-15T00:12:45;6.10;;;3.20;;
74965;SDS011;63522;47.928;21.042;2024-01-15T00:15:10;5.80;;;3.20;;
74965;SDS011;63522;47.928;21.042;2024-01-15T00:17:36;5.70;;;3.40;;
74965;SDS011;63522;47.928;21.042;2024-01-15T00:20:01;5.10;;;3.10;;
74965;SDS011;63522;47.928;21.042;2024-01-15T00:22:28;5.50;;;3.10;;
74965;SDS011;63522;47.928;21.042;2024-01-15T00:24:54;6.90;;;3.20;;
74965;SDS011;63522;47.928;21.042;2024-01-15T00:27:19;4.80;;;2.70;;
74965;SDS011;63522;47.928;21.042;2024-01-15T00:29:45;5.50;;;3.00;;
74965;SDS011;63522;47.928;21.042;2024-01-15T00:32:10;6.40;;;3.10;;
74965;SDS011;63522;47.928;21.042;2024-01-15T00:34:35;5.00;;;2.70;;
74965;SDS011;63522;47.928;21.042;2024-01-15T00:37:01;4.90;;;2.90;;
74965;SDS011;63522;47.928;21.042;2024-01-15T00:39:26;6.10;;;3.30;;
74965;SDS011;63522;47.928;21.042;2024-01-15T00:41:51;5.00;;;3.30;;
74965;SDS011;63522;47.928;21.042;2024-01-15T00:44:17;5.00;;;2.90;;
74965;SDS011;63522;47.928;21.042;2024-01-15T00:46:43;5.30;;;3.20;;
74965;SDS011;63522;47.928;21.042;2024-01-15T00:49:09;5.30;;;3.00;;
74965;SDS011;63522;47.928;21.042;2024-01-15T00:51:35;5.80;;;3.50;;
74965;SDS011;63522;47.928;21.042;2024-01-15T00:54:00;6.40;;;3.60;;
74965;SDS011;63522;47.928;21.042;2024-01-15T00:56:26;4.60;;;3.00;;
74965;SDS011;63522;47.928;21.042;2024-01-15T00:58:51;5.20;;;3.30;;
74965;SDS011;63522;47.928;21.042;2024-01-15T01:01:16;6.30;;;3.60;;
74965;SDS011;63522;47.928;21.042;2024-01-15T01:03:42;6.00;;;3.60;;
74965;SDS011;63522;47.928;21.042;2024-01-15T01:06:07;6.30;;;3.30;;
74965;SDS011;63522;47.928;21.042;2024-01-15T01:08:32;6.10;;;3.60;;
74965;SDS011;63522;47.928;21.042;2024-01-15T01:10:58;6.00;;;3.50;;
74965;SDS011;63522;47.928;21.042;2024-01-15T01:13:23;4.90;;;3.40;;
74965;SDS011;63522;47.928;21.042;2024-01-15T01:15:48;6.40;;;3.70;;
74965;SDS011;63522;47.928;21.042;2024-01-15T01:18:14;6.50;;;3.50;;
74965;SDS011;63522;47.928;21.042;2024-01-15T01:20:39;5.50;;;3.40;;
74965;SDS011;63522;47.928;21.042;2024-01-15T01:23:04;5.80;;;3.80;;
74965;SDS011;63522;47.928;21.042;2024-01-15T01:25:30;6.10;;;3.20;;
74965;SDS011;63522;47.928;21.042;2024-01-15T01:27:55;6.20;;;3.70;;
74965;SDS011;63522;47.928;21.042;2024-01-15T01:30:20;6.30;;;3.20;;
74965;SDS011;63522;47.928;21.042;2024-01-15T01:32:46;6.40;;;4.10;;
74965;SDS011;63522;47.928;21.042;2024-01-15T01:35:12;5.70;;;2.90;;
74965;SDS011;63522;47.928;21.042;2024-01-15T01:37:37;5.30;;;3.90;;
74965;SDS011;63522;47.928;21.042;2024-01-15T01:40:03;6.20;;;3.40;;
74965;SDS011;63522;47.928;21.042;2024-01-15T01:42:29;6.10;;;3.50;;
74965;SDS011;63522;47.928;21.042;2024-01-15T01:44:54;6.10;;;3.50;;
74965;SDS011;63522;47.928;21.042;2024-01-15T01:47:19;6.20;;;3.50;;
74965;SDS011;63522;47.928;21.042;2024-01-15T01:49:45;5.30;;;3.10;;
74965;SDS011;63522;47.928;21.042;2024-01-15T01:52:11;5.60;;;3.60;;
74965;SDS011;63522;47.928;21.042;2024-01-15T01:54:38;5.40;;;3.20;;
74965;SDS011;63522;47.928;21.042;2024-01-15T01:57:06;6.00;;;4.00;;
74965;SDS011;63522;47.928;21.042;2024-01-15T01:59:32;6.40;;;4.10;;
74965;SDS011;63522;47.928;21.042;2024-01-15T02:04:27;6.10;;;3.20;;
74965;SDS011;63522;47.928;21.042;2024-01-15T02:06:53;6.20;;;3.60;;
74965;SDS011;63522;47.928;21.042;2024-01-15T02:09:18;5.30;;;3.40;;
74965;SDS011;63522;47.928;21.042;2024-01-15T02:11:46;6.10;;;3.40;;
74965;SDS011;63522;47.928;21.042;2024-01-15T02:14:12;6.60;;;3.40;;
74965;SDS011;63522;47.928;21.042;2024-01-15T02:16:38;5.90;;;3.60;;
74965;SDS011;63522;47.928;21.042;2024-01-15T02:19:03;6.20;;;3.30;;
74965;SDS011;63522;47.928;21.042;2024-01-15T02:21:28;5.30;;;3.30;;
74965;SDS011;63522;47.928;21.042;2024-01-15T02:23:55;5.50;;;3.70;;
74965;SDS011;63522;47.928;21.042;2024-01-15T02:26:20;5.70;;;3.90;;
74965;SDS011;63522;47.928;21.042;2024-01-15T02:28:47;7.00;;;3.70;;
74965;SDS011;63522;47.928;21.042;2024-01-15T02:31:13;5.70;;;3.90;;
74965;SDS011;63522;47.928;21.042;2024-01-15T02:33:39;6.30;;;3.90;;
74965;SDS011;63522;47.928;21.042;2024-01-15T02:36:04;5.50;;;3.80;;
74965;SDS011;63522;47.928;21.042;2024-01-15T02:38:30;6.80;;;4.00;;
74965;SDS011;63522;47.928;21.042;2024-01-15T02:40:55;6.80;;;3.70;;
74965;SDS011;63522;47.928;21.042;2024-01-15T02:43:21;6.00;;;3.90;;
74965;SDS011;63522;47.928;21.042;2024-01-15T02:45:46;6.60;;;3.60;;
74965;SDS011;63522;47.928;21.042;2024-01-15T02:48:12;5.30;;;3.50;;
74965;SDS011;63522;47.928;21.042;2024-01-15T02:50:37;5.70;;;3.60;;
74965;SDS011;63522;47.928;21.042;2024-01-15T02:53:02;8.80;;;4.50;;
74965;SDS011;63522;47.928;21.042;2024-01-15T02:55:28;6.60;;;4.00;;
74965;SDS011;63522;47.928;21.042;2024-01-15T02:57:54;5.90;;;3.80;;
74965;SDS011;63522;47.928;21.042;2024-01-15T03:00:20;6.50;;;4.40;;
74965;SDS011;63522;47.928;21.042;2024-01-15T03:02:45;6.20;;;3.80;;
74965;SDS011;63522;47.928;21.042;2024-01-15T03:05:11;6.50;;;3.60;;
74965;SDS011;63522;47.928;21.042;2024-01-15T03:07:37;7.20;;;4.30;;
74965;SDS011;63522;47.928;21.042;2024-01-15T03:10:03;7.30;;;3.80;;
74965;SDS011;63522;47.928;21.042;2024-01-15T03:12:30;6.10;;;4.40;;
74965;SDS011;63522;47.928;21.042;2024-01-15T03:14:55;6.70;;;3.60;;
74965;SDS011;63522;47.928;21.042;2024-01-15T03:17:20;7.00;;;4.20;;
74965;SDS011;63522;47.928;21.042;2024-01-15T03:19:45;6.80;;;4.10;;
74965;SDS011;63522;47.928;21.042;2024-01-15T03:22:11;7.10;;;4.70;;
74965;SDS011;63522;47.928;21.042;2024-01-15T03:24:36;6.80;;;3.80;;
74965;SDS011;63522;47.928;21.042;2024-01-15T03:27:02;6.60;;;4.30;;
74965;SDS011;63522;47.928;21.042;2024-01-15T03:29:27;6.60;;;3.70;;
74965;SDS011;63522;47.928;21.042;2024-01-15T03:31:53;6.00;;;3.80;;
74965;SDS011;63522;47.928;21.042;2024-01-15T03:34:18;5.70;;;3.70;;
74965;SDS011;63522;47.928;21.042;2024-01-15T03:36:44;6.60;;;4.40;;
74965;SDS011;63522;47.928;21.042;2024-01-15T03:39:09;7.90;;;4.30;;
74965;SDS011;63522;47.928;21.042;2024-01-15T03:41:35;6.90;;;4.10;;
74965;SDS011;63522;47.928;21.042;2024-01-15T03:44:00;6.40;;;4.30;;
74965;SDS011;63522;47.928;21.042;2024-01-15T03:46:26;7.30;;;4.40;;
74965;SDS011;63522;47.928;21.042;2024-01-15T03:48:52;6.80;;;4.00;;
74965;SDS011;63522;47.928;21.042;2024-01-15T03:51:17;6.30;;;3.40;;
74965;SDS011;63522;47.928;21.042;2024-01-15T03:53:43;6.80;;;4.30;;
74965;SDS011;63522;47.928;21.042;2024-01-15T03:56:09;7.30;;;4.60;;
74965;SDS011;63522;47.928;21.042;2024-01-15T03:58:34;7.00;;;4.30;;
74965;SDS011;63522;47.928;21.042;2024-01-15T04:00:59;8.00;;;4.50;;
74965;SDS011;63522;47.928;21.042;2024-01-15T04:03:25;9.00;;;5.00;;
74965;SDS011;63522;47.928;21.042;2024-01-15T04:05:50;6.70;;;4.00;;
74965;SDS011;63522;47.928;21.042;2024-01-15T04:08:15;6.70;;;4.10;;
74965;SDS011;63522;47.928;21.042;2024-01-15T04:10:41;7.10;;;4.60;;
74965;SDS011;63522;47.928;21.042;2024-01-15T04:13:06;5.60;;;4.40;;
74965;SDS011;63522;47.928;21.042;2024-01-15T04:15:32;8.30;;;5.10;;
74965;SDS011;63522;47.928;21.042;2024-01-15T04:17:57;6.60;;;3.70;;
74965;SDS011;63522;47.928;21.042;2024-01-15T04:20:22;6.30;;;3.90;;
74965;SDS011;63522;47.928;21.042;2024-01-15T04:22:48;7.50;;;4.30;;
74965;SDS011;63522;47.928;21.042;2024-01-15T04:25:13;7.10;;;4.30;;
74965;SDS011;63522;47.928;21.042;2024-01-15T04:27:38;7.70;;;4.10;;
74965;SDS011;63522;47.928;21.042;2024-01-15T04:30:04;7.10;;;4.40;;
74965;SDS011;63522;47.928;21.042;2024-01-15T04:32:30;6.40;;;4.60;;
74965;SDS011;63522;47.928;21.042;2024-01-15T04:34:55;8.60;;;5.00;;
74965;SDS011;63522;47.928;21.042;2024-01-15T04:37:20;7.00;;;4.40;;
74965;SDS011;63522;47.928;21.042;2024-01-15T04:39:45;6.60;;;3.70;;
74965;SDS011;63522;47.928;21.042;2024-01-15T04:42:11;6.60;;;3.80;;
74965;SDS011;63522;47.928;21.042;2024-01-15T04:44:36;7.20;;;4.70;;
74965;SDS011;63522;47.928;21.042;2024-01-15T04:47:02;7.10;;;4.60;;
74965;SDS011;63522;47.928;21.042;2024-01-15T04:49:28;8.10;;;4.70;;
74965;SDS011;63522;47.928;21.042;2024-01-15T04:51:54;8.30;;;5.20;;
74965;SDS011;63522;47.928;21.042;2024-01-15T04:54:19;7.70;;;4.50;;
74965;SDS011;63522;47.928;21.042;2024-01-15T04:56:45;7.60;;;4.80;;
74965;SDS011;63522;47.928;21.042;2024-01-15T04:59:11;8.10;;;4.80;;
74965;SDS011;63522;47.928;21.042;2024-01-15T05:01:36;7.20;;;4.60;;
74965;SDS011;63522;47.928;21.042;2024-01-15T05:04:01;8.70;;;4.80;;
74965;SDS011;63522;47.928;21.042;2024-01-15T05:06:27;9.70;;;5.40;;
74965;SDS011;63522;47.928;21.042;2024-01-15T05:08:53;7.00;;;4.20;;
74965;SDS011;63522;47.928;21.042;2024-01-15T05:11:18;7.60;;;5.00;;
74965;SDS011;63522;47.928;21.042;2024-01-15T05:13:43;7.90;;;4.70;;
74965;SDS011;63522;47.928;21.042;2024-01-15T05:16:09;8.00;;;4.90;;
74965;SDS011;63522;47.928;21.042;2024-01-15T05:18:34;8.10;;;4.90;;
74965;SDS011;63522;47.928;21.042;2024-01-15T05:21:02;7.90;;;5.10;;
74965;SDS011;63522;47.928;21.042;2024-01-15T05:23:28;8.10;;;4.70;;
74965;SDS011;63522;47.928;21.042;2024-01-15T05:25:54;7.90;;;5.30;;
74965;SDS011;63522;47.928;21.042;2024-01-15T05:28:19;9.20;;;4.90;;
74965;SDS011;63522;47.928;21.042;2024-01-15T05:30:45;7.60;;;4.60;;
74965;SDS011;63522;47.928;21.042;2024-01-15T05:33:10;7.40;;;5.20;;
74965;SDS011;63522;47.928;21.042;2024-01-15T05:35:35;8.60;;;5.50;;
74965;SDS011;63522;47.928;21.042;2024-01-15T05:38:01;8.80;;;5.50;;
74965;SDS011;63522;47.928;21.042;2024-01-15T05:40:27;8.30;;;4.70;;
74965;SDS011;63522;47.928;21.042;2024-01-15T05:42:53;8.30;;;4.90;;
74965;SDS011;63522;47.928;21.042;2024-01-15T05:45:18;8.00;;;5.10;;
74965;SDS011;63522;47.928;21.042;2024-01-15T05:47:43;8.60;;;5.10;;
74965;SDS011;63522;47.928;21.042;2024-01-15T05:50:09;9.20;;;5.60;;
74965;SDS011;63522;47.928;21.042;2024-01-15T05:52:35;7.40;;;4.40;;
74965;SDS011;63522;47.928;21.042;2024-01-15T05:55:00;8.10;;;5.70;;
74965;SDS011;63522;47.928;21.042;2024-01-15T05:57:25;9.00;;;5.40;;
74965;SDS011;63522;47.928;21.042;2024-01-15T05:59:51;8.10;;;5.70;;
74965;SDS011;63522;47.928;21.042;2024-01-15T06:02:16;6.80;;;3.90;;
74965;SDS011;63522;47.928;21.042;2024-01-15T06:04:41;8.70;;;5.20;;
74965;SDS011;63522;47.928;21.042;2024-01-15T06:07:07;9.30;;;5.90;;
74965;SDS011;63522;47.928;21.042;2024-01-15T06:09:32;9.10;;;5.60;;
74965;SDS011;63522;47.928;21.042;2024-01-15T06:11:58;8.60;;;5.70;;
74965;SDS011;63522;47.928;21.042;2024-01-15T06:14:23;9.10;;;6.10;;
74965;SDS011;63522;47.928;21.042;2024-01-15T06:16:48;8.30;;;5.20;;
74965;SDS011;63522;47.928;21.042;2024-01-15T06:19:14;8.60;;;5.60;;
74965;SDS011;63522;47.928;21.042;2024-01-15T06:21:39;8.50;;;5.90;;
74965;SDS011;63522;47.928;21.042;2024-01-15T06:24:05;9.30;;;5.90;;
74965;SDS011;63522;47.928;21.042;2024-01-15T06:26:30;8.20;;;5.30;;
74965;SDS011;63522;47.928;21.042;2024-01-15T06:28:55;8.60;;;4.90;;
74965;SDS011;63522;47.928;21.042;2024-01-15T06:31:21;9.40;;;6.50;;
74965;SDS011;63522;47.928;21.042;2024-01-15T06:33:46;7.70;;;4.70;;
74965;SDS011;63522;47.928;21.042;2024-01-15T06:36:13;9.20;;;6.50;;
74965;SDS011;63522;47.928;21.042;2024-01-15T06:38:39;8.60;;;5.60;;
74965;SDS011;63522;47.928;21.042;2024-01-15T06:41:04;8.30;;;5.80;;
74965;SDS011;63522;47.928;21.042;2024-01-15T06:43:29;9.60;;;5.80;;
74965;SDS011;63522;47.928;21.042;2024-01-15T06:45:55;9.70;;;5.80;;
74965;SDS011;63522;47.928;21.042;2024-01-15T06:48:20;9.80;;;6.40;;
74965;SDS011;63522;47.928;21.042;2024-01-15T06:50:46;9.40;;;6.30;;
74965;SDS011;63522;47.928;21.042;2024-01-15T06:53:11;9.50;;;6.20;;
74965;SDS011;63522;47.928;21.042;2024-01-15T06:55:37;8.10;;;5.50;;
74965;SDS011;63522;47.928;21.042;2024-01-15T06:58:03;9.10;;;5.70;;
74965;SDS011;63522;47.928;21.042;2024-01-15T07:00:28;9.70;;;5.80;;
74965;SDS011;63522;47.928;21.042;2024-01-15T07:02:54;8.70;;;5.70;;
74965;SDS011;63522;47.928;21.042;2024-01-15T07:05:20;8.00;;;5.50;;
74965;SDS011;63522;47.928;21.042;2024-01-15T07:07:45;8.80;;;5.80;;
74965;SDS011;63522;47.928;21.042;2024-01-15T07:10:12;9.50;;;5.90;;
74965;SDS011;63522;47.928;21.042;2024-01-15T07:12:38;9.60;;;5.90;;
74965;SDS011;63522;47.928;21.042;2024-01-15T07:15:04;8.40;;;5.60;;
74965;SDS011;63522;47.928;21.042;2024-01-15T07:17:32;9.20;;;6.50;;
74965;SDS011;63522;47.928;21.042;2024-01-15T07:19:57;9.00;;;5.70;;
74965;SDS011;63522;47.928;21.042;2024-01-15T07:22:22;8.80;;;6.20;;
74965;SDS011;63522;47.928;21.042;2024-01-15T07:24:48;9.20;;;6.10;;
74965;SDS011;63522;47.928;21.042;2024-01-15T07:27:13;10.00;;;5.70;;
74965;SDS011;63522;47.928;21.042;2024-01-15T07:29:38;9.30;;;5.40;;
74965;SDS011;63522;47.928;21.042;2024-01-15T07:32:04;9.40;;;6.20;;
74965;SDS011;63522;47.928;21.042;2024-01-15T07:34:30;9.40;;;5.60;;
74965;SDS011;63522;47.928;21.042;2024-01-15T07:36:56;9.10;;;5.80;;
74965;SDS011;63522;47.928;21.042;2024-01-15T07:39:22;9.90;;;5.80;;
74965;SDS011;63522;47.928;21.042;2024-01-15T07:41:49;9.30;;;6.40;;
74965;SDS011;63522;47.928;21.042;2024-01-15T07:44:15;9.10;;;6.50;;
74965;SDS011;63522;47.928;21.042;2024-01-15T07:46:43;11.00;;;6.50;;
74965;SDS011;63522;47.928;21.042;2024-01-15T07:49:10;10.10;;;6.70;;
74965;SDS011;63522;47.928;21.042;2024-01-15T07:51:35;10.00;;;6.30;;
74965;SDS011;63522;47.928;21.042;2024-01-15T07:54:00;10.20;;;6.10;;
74965;SDS011;63522;47.928;21.042;2024-01-15T07:56:26;11.00;;;6.00;;
74965;SDS011;63522;47.928;21.042;2024-01-15T07:58:52;9.20;;;6.20;;
74965;SDS011;63522;47.928;21.042;2024-01-15T08:01:18;8.60;;;6.60;;
74965;SDS011;63522;47.928;21.042;2024-01-15T08:03:43;11.20;;;6.70;;
74965;SDS011;63522;47.928;21.042;2024-01-15T08:06:08;10.80;;;6.70;;
74965;SDS011;63522;47.928;21.042;2024-01-15T08:08:35;10.00;;;6.40;;
74965;SDS011;63522;47.928;21.042;2024-01-15T08:11:01;9.70;;;6.70;;
74965;SDS011;63522;47.928;21.042;2024-01-15T08:13:26;10.80;;;6.20;;
74965;SDS011;63522;47.928;21.042;2024-01-15T08:15:52;8.60;;;5.80;;
74965;SDS011;63522;47.928;21.042;2024-01-15T08:18:18;9.50;;;5.80;;
74965;SDS011;63522;47.928;21.042;2024-01-15T08:20:43;10.20;;;6.60;;
74965;SDS011;63522;47.928;21.042;2024-01-15T08:23:09;8.80;;;5.90;;
74965;SDS011;63522;47.928;21.042;2024-01-15T08:25:34;9.10;;;6.20;;
74965;SDS011;63522;47.928;21.042;2024-01-15T08:28:00;12.10;;;7.10;;
74965;SDS011;63522;47.928;21.042;2024-01-15T08:30:25;10.00;;;6.60;;
74965;SDS011;63522;47.928;21.042;2024-01-15T08:32:56;10.40;;;6.40;;
74965;SDS011;63522;47.928;21.042;2024-01-15T08:35:21;9.80;;;6.00;;
74965;SDS011;63522;47.928;21.042;2024-01-15T08:37:50;10.90;;;6.50;;
74965;SDS011;63522;47.928;21.042;2024-01-15T08:40:16;11.10;;;6.70;;
74965;SDS011;63522;47.928;21.042;2024-01-15T08:42:42;9.60;;;6.40;;
74965;SDS011;63522;47.928;21.042;2024-01-15T08:45:08;9.00;;;6.10;;
74965;SDS011;63522;47.928;21.042;2024-01-15T08:47:33;9.00;;;6.50;;
74965;SDS011;63522;47.928;21.042;2024-01-15T08:49:59;9.60;;;6.30;;
74965;SDS011;63522;47.928;21.042;2024-01-15T08:52:25;9.30;;;6.80;;
74965;SDS011;63522;47.928;21.042;2024-01-15T08:54:51;9.50;;;6.80;;
74965;SDS011;63522;47.928;21.042;2024-01-15T08:57:16;11.10;;;6.70;;
74965;SDS011;63522;47.928;21.042;2024-01-15T08:59:42;10.40;;;6.60;;
74965;SDS011;63522;47.928;21.042;2024-01-15T09:02:07;9.80;;;7.00;;
74965;SDS011;63522;47.928;21.042;2024-01-15T09:04:33;10.80;;;7.20;;
74965;SDS011;63522;47.928;21.042;2024-01-15T09:06:59;11.10;;;6.60;;
74965;SDS011;63522;47.928;21.042;2024-01-15T09:09:24;11.30;;;7.60;;
74965;SDS011;63522;47.928;21.042;2024-01-15T09:11:51;10.90;;;6.50;;
74965;SDS011;63522;47.928;21.042;2024-01-15T09:14:16;11.00;;;7.10;;
74965;SDS011;63522;47.928;21.042;2024-01-15T09:16:42;11.00;;;6.70;;
74965;SDS011;63522;47.928;21.042;2024-01-15T09:19:07;10.60;;;7.70;;
74965;SDS011;63522;47.928;21.042;2024-01-15T09:21:33;10.20;;;6.70;;
74965;SDS011;63522;47.928;21.042;2024-01-15T09:23:58;10.30;;;6.60;;
74965;SDS011;63522;47.928;21.042;2024-01-15T09:26:23;11.40;;;7.20;;
74965;SDS011;63522;47.928;21.042;2024-01-15T09:28:49;10.00;;;6.80;;
74965;SDS011;63522;47.928;21.042;2024-01-15T09:31:14;9.70;;;6.00;;
74965;SDS011;63522;47.928;21.042;2024-01-15T09:36:08;9.70;;;6.20;;
74965;SDS011;63522;47.928;21.042;2024-01-15T09:38:33;9.50;;;6.30;;
74965;SDS011;63522;47.928;21.042;2024-01-15T09:40:58;10.40;;;6.30;;
74965;SDS011;63522;47.928;21.042;2024-01-15T09:43:24;9.60;;;6.50;;
74965;SDS011;63522;47.928;21.042;2024-01-15T09:45:49;9.90;;;6.70;;
74965;SDS011;63522;47.928;21.042;2024-01-15T09:48:16;9.40;;;6.50;;
74965;SDS011;63522;47.928;21.042;2024-01-15T09:50:42;9.90;;;6.00;;
74965;SDS011;63522;47.928;21.042;2024-01-15T09:53:08;10.70;;;6.70;;
74965;SDS011;63522;47.928;21.042;2024-01-15T09:55:35;9.80;;;5.80;;
74965;SDS011;63522;47.928;21.042;2024-01-15T09:58:03;10.00;;;6.90;;
74965;SDS011;63522;47.928;21.042;2024-01-15T10:00:29;9.90;;;6.40;;
74965;SDS011;63522;47.928;21.042;2024-01-15T10:02:57;9.60;;;6.80;;
74965;SDS011;63522;47.928;21.042;2024-01-15T10:07:50;9.10;;;5.60;;
74965;SDS011;63522;47.928;21.042;2024-01-15T10:12:43;9.20;;;6.10;;
74965;SDS011;63522;47.928;21.042;2024-01-15T10:15:09;8.40;;;5.00;;
74965;SDS011;63522;47.928;21.042;2024-01-15T10:17:38;10.10;;;6.60;;
74965;SDS011;63522;47.928;21.042;2024-01-15T10:20:08;8.80;;;5.90;;
74965;SDS011;63522;47.928;21.042;2024-01-15T10:22:40;8.90;;;5.90;;
74965;SDS011;63522;47.928;21.042;2024-01-15T10:25:09;8.50;;;6.00;;
74965;SDS011;63522;47.928;21.042;2024-01-15T10:27:35;9.20;;;6.10;;
74965;SDS011;63522;47.928;21.042;2024-01-15T10:30:01;9.30;;;6.40;;
74965;SDS011;63522;47.928;21.042;2024-01-15T10:32:27;9.50;;;5.80;;
74965;SDS011;63522;47.928;21.042;2024-01-15T10:34:52;8.70;;;5.20;;
74965;SDS011;63522;47.928;21.042;2024-01-15T10:37:19;10.30;;;6.70;;
74965;SDS011;63522;47.928;21.042;2024-01-15T10:39:46;8.30;;;5.50;;
74965;SDS011;63522;47.928;21.042;2024-01-15T10:42:11;8.70;;;6.20;;
74965;SDS011;63522;47.928;21.042;2024-01-15T10:44:37;8.70;;;5.90;;
74965;SDS011;63522;47.928;21.042;2024-01-15T10:47:02;9.80;;;5.80;;
74965;SDS011;63522;47.928;21.042;2024-01-15T10:49:29;8.90;;;5.30;;
74965;SDS011;63522;47.928;21.042;2024-01-15T10:51:55;9.30;;;5.70;;
74965;SDS011;63522;47.928;21.042;2024-01-15T10:54:22;8.90;;;5.30;;
74965;SDS011;63522;47.928;21.042;2024-01-15T10:56:48;8.70;;;5.70;;
74965;SDS011;63522;47.928;21.042;2024-01-15T10:59:15;9.70;;;6.20;;
74965;SDS011;63522;47.928;21.042;2024-01-15T11:01:41;7.40;;;5.00;;
74965;SDS011;63522;47.928;21.042;2024-01-15T11:04:08;8.30;;;5.00;;
74965;SDS011;63522;47.928;21.042;2024-01-15T11:06:43;8.70;;;5.60;;
74965;SDS011;63522;47.928;21.042;2024-01-15T11:09:10;8.40;;;5.50;;
74965;SDS011;63522;47.928;21.042;2024-01-15T11:11:40;8.40;;;5.00;;
74965;SDS011;63522;47.928;21.042;2024-01-15T11:14:10;8.00;;;5.60;;
74965;SDS011;63522;47.928;21.042;2024-01-15T11:16:54;8.70;;;5.50;;
74965;SDS011;63522;47.928;21.042;2024-01-15T11:19:21;8.00;;;5.20;;
74965;SDS011;63522;47.928;21.042;2024-01-15T11:21:47;9.10;;;5.60;;
74965;SDS011;63522;47.928;21.042;2024-01-15T11:24:32;9.90;;;6.00;;
74965;SDS011;63522;47.928;21.042;2024-01-15T11:27:02;8.80;;;5.20;;
74965;SDS011;63522;47.928;21.042;2024-01-15T11:32:06;7.70;;;5.10;;
74965;SDS011;63522;47.928;21.042;2024-01-15T11:34:52;9.20;;;5.20;;
74965;SDS011;63522;47.928;21.042;2024-01-15T11:37:26;6.50;;;4.60;;
74965;SDS011;63522;47.928;21.042;2024-01-15T11:39:59;8.20;;;5.50;;
74965;SDS011;63522;47.928;21.042;2024-01-15T11:42:28;7.70;;;4.80;;
74965;SDS011;63522;47.928;21.042;2024-01-15T11:44:54;7.40;;;4.80;;
74965;SDS011;63522;47.928;21.042;2024-01-15T11:47:27;7.60;;;5.30;;
74965;SDS011;63522;47.928;21.042;2024-01-15T11:50:18;8.00;;;4.80;;
74965;SDS011;63522;47.928;21.042;2024-01-15T11:52:50;9.10;;;5.50;;
74965;SDS011;63522;47.928;21.042;2024-01-15T11:57:57;8.70;;;5.00;;
74965;SDS011;63522;47.928;21.042;2024-01-15T12:00:25;7.70;;;5.20;;
74965;SDS011;63522;47.928;21.042;2024-01-15T12:02:50;9.60;;;4.90;;
74965;SDS011;63522;47.928;21.042;2024-01-15T12:05:17;7.50;;;4.70;;
74965;SDS011;63522;47.928;21.042;2024-01-15T12:07:44;8.20;;;5.30;;
74965;SDS011;63522;47.928;21.042;2024-01-15T12:10:11;7.40;;;4.70;;
74965;SDS011;63522;47.928;21.042;2024-01-15T12:12:47;7.50;;;4.50;;
74965;SDS011;63522;47.928;21.042;2024-01-15T12:15:33;7.80;;;4.90;;
74965;SDS011;63522;47.928;21.042;2024-01-15T12:18:00;7.40;;;4.60;;
74965;SDS011;63522;47.928;21.042;2024-01-15T12:20:27;8.90;;;5.60;;
74965;SDS011;63522;47.928;21.042;2024-01-15T12:22:57;8.30;;;5.20;;
74965;SDS011;63522;47.928;21.042;2024-01-15T12:25:23;7.30;;;4.70;;
74965;SDS011;63522;47.928;21.042;2024-01-15T12:27:49;7.00;;;4.40;;
74965;SDS011;63522;47.928;21.042;2024-01-15T12:30:16;7.90;;;4.60;;
74965;SDS011;63522;47.928;21.042;2024-01-15T12:32:42;7.60;;;4.70;;
74965;SDS011;63522;47.928;21.042;2024-01-15T12:35:08;7.30;;;5.10;;
74965;SDS011;63522;47.928;21.042;2024-01-15T12:37:35;6.80;;;4.40;;
74965;SDS011;63522;47.928;21.042;2024-01-15T12:40:02;7.20;;;4.50;;
74965;SDS011;63522;47.928;21.042;2024-01-15T12:42:28;7.00;;;4.80;;
74965;SDS011;63522;47.928;21.042;2024-01-15T12:44:55;8.00;;;4.70;;
74965;SDS011;63522;47.928;21.042;2024-01-15T12:47:21;7.40;;;4.20;;
74965;SDS011;63522;47.928;21.042;2024-01-15T12:49:47;7.30;;;4.70;;
74965;SDS011;63522;47.928;21.042;2024-01-15T12:52:18;6.40;;;4.30;;
74965;SDS011;63522;47.928;21.042;2024-01-15T12:54:45;6.80;;;4.20;;
74965;SDS011;63522;47.928;21.042;2024-01-15T12:57:11;7.90;;;4.50;;
74965;SDS011;63522;47.928;21.042;2024-01-15T12:59:36;7.70;;;5.00;;
74965;SDS011;63522;47.928;21.042;2024-01-15T13:02:01;8.20;;;4.50;;
74965;SDS011;63522;47.928;21.042;2024-01-15T13:04:27;7.70;;;4.50;;
74965;SDS011;63522;47.928;21.042;2024-01-15T13:06:52;6.10;;;3.90;;
74965;SDS011;63522;47.928;21.042;2024-01-15T13:09:18;5.40;;;3.80;;
74965;SDS011;63522;47.928;21.042;2024-01-15T13:11:47;6.60;;;4.30;;
74965;SDS011;63522;47.928;21.042;2024-01-15T13:14:12;7.20;;;4.60;;
74965;SDS011;63522;47.928;21.042;2024-01-15T13:16:41;6.60;;;4.00;;
74965;SDS011;63522;47.928;21.042;2024-01-15T13:19:10;7.00;;;3.90;;
74965;SDS011;63522;47.928;21.042;2024-01-15T13:21:39;6.10;;;4.00;;
74965;SDS011;63522;47.928;21.042;2024-01-15T13:24:06;6.50;;;4.20;;
74965;SDS011;63522;47.928;21.042;2024-01-15T13:26:34;7.70;;;4.40;;
74965;SDS011;63522;47.928;21.042;2024-01-15T13:29:02;5.90;;;4.20;;
74965;SDS011;63522;47.928;21.042;2024-01-15T13:31:31;6.30;;;3.60;;
74965;SDS011;63522;47.928;21.042;2024-01-15T13:33:57;7.20;;;4.10;;
74965;SDS011;63522;47.928;21.042;2024-01-15T13:36:23;5.80;;;3.50;;
74965;SDS011;63522;47.928;21.042;2024-01-15T13:38:50;6.00;;;4.00;;
74965;SDS011;63522;47.928;21.042;2024-01-15T13:41:16;5.90;;;4.00;;
74965;SDS011;63522;47.928;21.042;2024-01-15T13:43:45;6.30;;;4.00;;
74965;SDS011;63522;47.928;21.042;2024-01-15T13:46:11;6.20;;;3.80;;
74965;SDS011;63522;47.928;21.042;2024-01-15T13:48:36;5.40;;;4.00;;
74965;SDS011;63522;47.928;21.042;2024-01-15T13:51:01;6.80;;;4.40;;
74965;SDS011;63522;47.928;21.042;2024-01-15T13:53:27;5.10;;;3.60;;
74965;SDS011;63522;47.928;21.042;2024-01-15T13:55:52;6.90;;;3.90;;
74965;SDS011;63522;47.928;21.042;2024-01-15T13:58:17;6.20;;;3.70;;
74965;SDS011;63522;47.928;21.042;2024-01-15T14:00:43;6.80;;;3.70;;
74965;SDS011;63522;47.928;21.042;2024-01-15T14:03:09;5.20;;;3.30;;
74965;SDS011;63522;47.928;21.042;2024-01-15T14:05:34;6.10;;;3.40;;
74965;SDS011;63522;47.928;21.042;2024-01-15T14:08:00;5.40;;;3.60;;
74965;SDS011;63522;47.928;21.042;2024-01-15T14:10:25;6.20;;;3.90;;
74965;SDS011;63522;47.928;21.042;2024-01-15T14:12:50;5.70;;;3.90;;
74965;SDS011;63522;47.928;21.042;2024-01-15T14:15:16;5.40;;;3.20;;
74965;SDS011;63522;47.928;21.042;2024-01-15T14:17:42;5.60;;;3.60;;
74965;SDS011;63522;47.928;21.042;2024-01-15T14:20:08;5.90;;;3.80;;
74965;SDS011;63522;47.928;21.042;2024-01-15T14:22:34;5.70;;;3.80;;
74965;SDS011;63522;47.928;21.042;2024-01-15T14:25:00;6.20;;;4.10;;
74965;SDS011;63522;47.928;21.042;2024-01-15T14:27:26;6.80;;;3.70;;
74965;SDS011;63522;47.928;21.042;2024-01-15T14:29:51;6.40;;;3.90;;
74965;SDS011;63522;47.928;21.042;2024-01-15T14:32:16;5.30;;;3.70;;
74965;SDS011;63522;47.928;21.042;2024-01-15T14:34:42;5.80;;;3.60;;
74965;SDS011;63522;47.928;21.042;2024-01-15T14:37:08;4.70;;;3.10;;
74965;SDS011;63522;47.928;21.042;2024-01-15T14:39:33;5.00;;;3.20;;
74965;SDS011;63522;47.928;21.042;2024-01-15T14:41:59;4.90;;;3.20;;